Time;durP1;ratioP1;P1;durP2;ratioP2;P2;SDS_P1;SDS_P2;PMS_P1;PMS_P2;Temp;Humidity;BMP_temperature;BMP_pressure;BME280_temperature;BME280_humidity;BME280_pressure;Samples;Min_cycle;Max_cycle;Signal;HPM_P1;HPM_P2
2021/03/03 00:00:54;;;;;;;46.6;32.6;;;;;;;0.76;92.41699;100276.6;;;;
2021/03/03 00:10:51;;;;;;;45.5;32.9;;;;;;;0.67;92.03516;100275.2;;;;
2021/03/03 00:20:49;;;;;;;56.9;34.2;;;;;;;0.58;92.48828;100273.7;;;;
2021/03/03 00:30:47;;;;;;;43.2;33.5;;;;;;;0.47;92.72852;100259.2;;;;
2021/03/03 00:40:44;;;;;;;50.1;31;;;;;;;0.5;93.38086;100250.9;;;;
2021/03/03 00:50:42;;;;;;;40.6;31.1;;;;;;;0.37;93.03516;100242.9;;;;
2021/03/03 02:00:25;;;;;;;40.2;31.9;;;;;;;-0.35;96.78125;100210;;;;
2021/03/03 02:10:22;;;;;;;45;30.1;;;;;;;-0.52;96.0459;100197.1;;;;
2021/03/03 02:20:20;;;;;;;42.5;29.5;;;;;;;-0.69;95.49414;100187;;;;
2021/03/03 02:30:17;;;;;;;35;27.4;;;;;;;-0.97;95.17871;100181.8;;;;
2021/03/03 02:40:15;;;;;;;35.1;31.3;;;;;;;-1.26;95.23535;100172.2;;;;
2021/03/03 02:50:12;;;;;;;46.6;31.3;;;;;;;-1.48;96.02539;100172.4;;;;
2021/03/03 03:20:04;;;;;;;36.5;27.4;;;;;;;-1.97;97.99414;100167.1;;;;
2021/03/03 03:30:01;;;;;;;45.6;33.6;;;;;;;-2.15;98.47754;100160.4;;;;
2021/03/03 03:39:59;;;;;;;51.7;33.3;;;;;;;-2.3;99.05176;100146.5;;;;
2021/03/03 03:50:01;;;;;;;52.6;31.8;;;;;;;-2.45;99.6875;100144.8;;;;
2021/03/03 03:59:53;;;;;;;45.1;31.2;;;;;;;-2.58;100;100138.4;;;;
2021/03/03 04:09:50;;;;;;;39.5;29;;;;;;;-2.66;100;100129.8;;;;
2021/03/03 04:19:48;;;;;;;30.5;27.3;;;;;;;-2.73;100;100134.1;;;;
2021/03/03 04:29:45;;;;;;;31.1;26.2;;;;;;;-2.73;100;100121.8;;;;
2021/03/03 04:39:42;;;;;;;37;32.5;;;;;;;-2.78;100;100128.6;;;;
2021/03/03 04:49:39;;;;;;;36.6;26.8;;;;;;;-2.84;100;100111.7;;;;
2021/03/03 04:59:37;;;;;;;36.6;26.3;;;;;;;-2.93;100;100112.8;;;;
2021/03/03 05:09:34;;;;;;;33.7;21.9;;;;;;;-3.01;100;100104.2;;;;
2021/03/03 05:19:31;;;;;;;43.8;29.4;;;;;;;-3.05;100;100094;;;;
2021/03/03 05:29:28;;;;;;;37.9;28.7;;;;;;;-3.08;100;100091.7;;;;
2021/03/03 05:39:25;;;;;;;38.3;28.1;;;;;;;-3.05;100;100087.9;;;;
2021/03/03 05:49:23;;;;;;;47.7;31.9;;;;;;;-2.94;100;100094.5;;;;
2021/03/03 05:59:20;;;;;;;49.3;33.2;;;;;;;-2.82;100;100093;;;;
2021/03/03 06:09:18;;;;;;;55.3;36.8;;;;;;;-2.57;100;100087.3;;;;
2021/03/03 06:19:14;;;;;;;59.3;37.9;;;;;;;-2.28;100;100091.6;;;;
2021/03/03 06:29:11;;;;;;;63.7;42.9;;;;;;;-1.97;100;100083.4;;;;
2021/03/03 06:39:09;;;;;;;63.9;50.7;;;;;;;-1.56;100;100078.2;;;;
2021/03/03 06:49:06;;;;;;;75.3;49.1;;;;;;;-1.17;100;100088.2;;;;
2021/03/03 06:59:13;;;;;;;66.2;48.3;;;;;;;-0.58;100;100083.2;;;;
2021/03/03 07:09:01;;;;;;;52.3;40.8;;;;;;;-0.01;100;100075.6;;;;
2021/03/03 07:18:59;;;;;;;55.5;38.7;;;;;;;0.77;96.89355;100067.8;;;;
2021/03/03 07:29:00;;;;;;;53;43.2;;;;;;;1.4;94.76172;100060.8;;;;
2021/03/03 07:38:54;;;;;;;46.8;37;;;;;;;1.97;93.40332;100062.5;;;;
2021/03/03 07:48:52;;;;;;;44.8;34.1;;;;;;;2.55;90.61914;100055.1;;;;
2021/03/03 07:58:50;;;;;;;35.6;28;;;;;;;3.11;88.9707;100062.9;;;;
2021/03/03 08:08:48;;;;;;;35.1;22.7;;;;;;;3.79;84.91504;100050.1;;;;
2021/03/03 08:18:46;;;;;;;34;23.8;;;;;;;4.45;83.2041;100041.9;;;;
2021/03/03 08:28:44;;;;;;;32.5;22;;;;;;;5.17;79.76855;100028.2;;;;
2021/03/03 08:38:42;;;;;;;30.6;22.9;;;;;;;5.81;77.35645;100019.8;;;;
2021/03/03 08:48:40;;;;;;;37.8;25.5;;;;;;;6.45;75.36035;100023.8;;;;
2021/03/03 08:58:39;;;;;;;32.6;25;;;;;;;7.11;72.28125;100022;;;;
2021/03/03 09:08:37;;;;;;;33.1;24.7;;;;;;;7.71;68.78613;100005;;;;
2021/03/03 09:18:37;;;;;;;43.7;33.8;;;;;;;8.14;67.79785;100006.7;;;;
2021/03/03 09:28:34;;;;;;;49.2;42.3;;;;;;;8.68;65.4375;99997.41;;;;
2021/03/03 09:38:33;;;;;;;45.1;39.2;;;;;;;9.12;65.40039;99986.34;;;;
2021/03/03 09:48:32;;;;;;;41;32.9;;;;;;;9.68;61.90332;99980.03;;;;
2021/03/03 09:58:30;;;;;;;34.3;29.8;;;;;;;10.14;59.6123;99972.78;;;;
2021/03/03 10:08:29;;;;;;;38.5;25.9;;;;;;;10.54;59.70117;99959.27;;;;
2021/03/03 10:18:28;;;;;;;31.2;22.1;;;;;;;10.91;56.78809;99953.47;;;;
2021/03/03 10:28:27;;;;;;;22.2;18.4;;;;;;;11.3;56.07715;99942.77;;;;
2021/03/03 10:38:26;;;;;;;17.9;12.4;;;;;;;11.59;54.96582;99922.03;;;;
2021/03/03 10:48:25;;;;;;;13.9;10.6;;;;;;;12.04;52.06934;99915.48;;;;
2021/03/03 10:58:24;;;;;;;18.3;11.9;;;;;;;12.46;53.3623;99889.67;;;;
2021/03/03 11:08:23;;;;;;;16.6;11.1;;;;;;;12.84;51.39844;99872.41;;;;
2021/03/03 11:18:22;;;;;;;19.8;9.7;;;;;;;13.17;50.45215;99856.3;;;;
2021/03/03 11:28:21;;;;;;;15.9;7.8;;;;;;;13.43;46.99023;99841.28;;;;
2021/03/03 11:38:20;;;;;;;9.7;5.1;;;;;;;13.58;35.7207;99830.99;;;;
2021/03/03 11:48:20;;;;;;;7.3;3.6;;;;;;;13.74;32.44141;99809.88;;;;
2021/03/03 11:58:19;;;;;;;5.8;3.2;;;;;;;14.06;31.15039;99798.14;;;;
2021/03/03 12:08:18;;;;;;;5.4;2.2;;;;;;;14.29;28.87109;99783.61;;;;
2021/03/03 12:18:17;;;;;;;2.9;1.4;;;;;;;14.35;28.875;99752.58;;;;
2021/03/03 12:28:17;;;;;;;6.9;2.3;;;;;;;14.6;29.14551;99737.67;;;;
2021/03/03 12:38:16;;;;;;;7.4;2.2;;;;;;;14.79;28.78906;99730.16;;;;
2021/03/03 12:48:15;;;;;;;4.9;2.4;;;;;;;14.94;30.72852;99707.28;;;;
2021/03/03 12:58:15;;;;;;;6;2.9;;;;;;;15.09;32.14844;99682.48;;;;
2021/03/03 13:08:14;;;;;;;9.9;3.3;;;;;;;15.31;30.26855;99659.91;;;;
2021/03/03 13:18:13;;;;;;;6.2;2.8;;;;;;;15.44;29.80273;99642.73;;;;
2021/03/03 13:28:13;;;;;;;6.2;3.7;;;;;;;15.44;30.74023;99632.66;;;;
2021/03/03 13:38:12;;;;;;;6.7;4;;;;;;;15.38;29.70703;99620.31;;;;
2021/03/03 13:48:12;;;;;;;7.5;4;;;;;;;15.49;30.76758;99602.66;;;;
2021/03/03 13:58:11;;;;;;;14.4;5.1;;;;;;;15.56;31.21191;99589.41;;;;
2021/03/03 14:08:11;;;;;;;10.2;6;;;;;;;15.55;30.25;99573.41;;;;
2021/03/03 14:18:11;;;;;;;10.6;5.8;;;;;;;15.57;30.06738;99563.84;;;;
2021/03/03 14:28:10;;;;;;;15.9;7;;;;;;;15.53;29.05762;99538.42;;;;
2021/03/03 14:38:09;;;;;;;12.5;7;;;;;;;15.58;29.92871;99521.95;;;;
2021/03/03 14:48:09;;;;;;;10.6;5.7;;;;;;;15.43;29.13184;99500.66;;;;
2021/03/03 14:58:08;;;;;;;9.7;7.2;;;;;;;15.28;30.39355;99484.8;;;;
2021/03/03 15:08:08;;;;;;;11.4;7.6;;;;;;;15.04;30.00684;99481.7;;;;
2021/03/03 15:18:07;;;;;;;13.1;8.4;;;;;;;14.71;32.32813;99462.27;;;;
2021/03/03 15:28:07;;;;;;;15.2;9.9;;;;;;;14.02;33.40723;99455.64;;;;
2021/03/03 15:38:06;;;;;;;13.6;10.4;;;;;;;13.38;34.99121;99446.83;;;;
2021/03/03 15:48:06;;;;;;;14;11.9;;;;;;;12.7;36.85352;99441.46;;;;
2021/03/03 15:58:05;;;;;;;18.2;12.7;;;;;;;12.29;36.63477;99445.99;;;;
2021/03/03 16:08:04;;;;;;;19.6;15.1;;;;;;;11.41;38.16309;99439.56;;;;
2021/03/03 16:18:03;;;;;;;25.1;17.2;;;;;;;10.5;39.62305;99429.1;;;;
2021/03/03 16:28:02;;;;;;;21.1;17.3;;;;;;;9.77;42.23145;99429.22;;;;
2021/03/03 16:38:01;;;;;;;31;22.1;;;;;;;9.46;43.82617;99430.52;;;;
2021/03/03 16:48:01;;;;;;;30.8;27.5;;;;;;;8.82;45.72461;99444.83;;;;
2021/03/03 16:57:59;;;;;;;35.5;30.6;;;;;;;8.45;47.70313;99434.48;;;;
2021/03/03 17:07:59;;;;;;;30.5;26.6;;;;;;;8.18;50.99805;99419.73;;;;
2021/03/03 17:17:56;;;;;;;33.1;26.4;;;;;;;8.11;52.25684;99411.96;;;;
2021/03/03 17:27:54;;;;;;;41.1;29.1;;;;;;;7.83;53.59961;99412.52;;;;
2021/03/03 17:37:53;;;;;;;35.1;26.8;;;;;;;7.47;55.2373;99407.14;;;;
2021/03/03 17:47:51;;;;;;;34.7;25.5;;;;;;;7.39;57.15234;99399.61;;;;
2021/03/03 17:57:50;;;;;;;30.9;23;;;;;;;7.42;57.39355;99388.38;;;;
2021/03/03 18:07:48;;;;;;;32.5;22.3;;;;;;;7.21;57.72461;99372.52;;;;
2021/03/03 18:17:47;;;;;;;44.3;21.9;;;;;;;7.04;57.4668;99362.86;;;;
2021/03/03 18:27:45;;;;;;;40.7;21.1;;;;;;;6.74;58.37207;99354.72;;;;
2021/03/03 18:37:44;;;;;;;31;24.2;;;;;;;6.47;59.03125;99346.06;;;;
2021/03/03 18:47:42;;;;;;;46.9;36.3;;;;;;;6.14;60.55762;99360.64;;;;
2021/03/03 18:57:40;;;;;;;42;32.2;;;;;;;5.84;61.2002;99350.52;;;;
2021/03/03 19:07:39;;;;;;;49.7;37.8;;;;;;;5.77;62.23242;99339.23;;;;
2021/03/03 19:17:37;;;;;;;51.1;36.4;;;;;;;5.66;63.21289;99326.08;;;;
2021/03/03 19:27:35;;;;;;;65.7;44.9;;;;;;;5.68;65.34277;99326.61;;;;
2021/03/03 19:37:35;;;;;;;56.8;44.2;;;;;;;5.45;65.43164;99327.77;;;;
2021/03/03 19:47:33;;;;;;;72.1;49.9;;;;;;;5.85;68.30273;99313.88;;;;
2021/03/03 19:57:30;;;;;;;81.9;53.4;;;;;;;5.75;67.93848;99306.61;;;;
2021/03/03 20:07:28;;;;;;;74.4;53.4;;;;;;;5.73;68.41699;99287.32;;;;
2021/03/03 20:17:26;;;;;;;77.4;59.8;;;;;;;5.75;69.45996;99287.88;;;;
2021/03/03 20:27:24;;;;;;;91.8;57.1;;;;;;;5.31;69.15527;99287.3;;;;
2021/03/03 20:37:23;;;;;;;75.5;55.5;;;;;;;5.25;71.84668;99272.3;;;;
2021/03/03 20:47:21;;;;;;;74.7;50.2;;;;;;;5.25;72.91797;99271.48;;;;
2021/03/03 20:57:19;;;;;;;60.7;48.6;;;;;;;5.29;73.37207;99269.92;;;;
2021/03/03 21:07:17;;;;;;;68.1;50.6;;;;;;;5.16;73.29297;99270.36;;;;
2021/03/03 21:17:15;;;;;;;76;58.8;;;;;;;4.9;74.7207;99258.65;;;;
2021/03/03 21:27:14;;;;;;;79.5;54.1;;;;;;;4.7;75.12012;99243.26;;;;
2021/03/03 21:37:11;;;;;;;65.3;48.9;;;;;;;4.47;75.43652;99232.9;;;;
2021/03/03 21:47:10;;;;;;;57.4;48.2;;;;;;;4.36;75.87207;99225.84;;;;
2021/03/03 21:57:08;;;;;;;62.9;49.6;;;;;;;4.29;76.32813;99204.7;;;;
2021/03/03 22:07:06;;;;;;;76.5;55.9;;;;;;;4.25;76.63281;99192.91;;;;
2021/03/03 22:17:04;;;;;;;86.9;68.6;;;;;;;4.42;78.80762;99192.8;;;;
2021/03/03 22:27:02;;;;;;;95.3;68.6;;;;;;;4.64;80.30469;99179.39;;;;
2021/03/03 22:37:00;;;;;;;101.4;72.5;;;;;;;4.78;79.97559;99176.05;;;;
2021/03/03 22:46:59;;;;;;;102.6;73.8;;;;;;;4.76;80.28418;99170.14;;;;
2021/03/03 22:56:56;;;;;;;98;72.1;;;;;;;4.79;81.3125;99164.29;;;;
2021/03/03 23:06:54;;;;;;;97.4;70.7;;;;;;;4.75;82.39453;99157.88;;;;
2021/03/03 23:16:52;;;;;;;101.1;71.8;;;;;;;4.61;82.64355;99161.22;;;;
2021/03/03 23:26:50;;;;;;;75.3;63.9;;;;;;;4.44;83.67773;99164.8;;;;
2021/03/03 23:36:48;;;;;;;88;65.3;;;;;;;4.25;83.40918;99152.08;;;;
2021/03/03 23:46:46;;;;;;;92.5;65.7;;;;;;;3.98;83.89844;99144.09;;;;
2021/03/03 23:56:44;;;;;;;89.1;62;;;;;;;3.85;84.75;99131.94;;;;
